createdAt,value
2022-08-22T00:00:55.674Z,62.7
2022-08-22T00:02:39.346Z,62.7
2022-08-22T00:04:23.031Z,62.7
2022-08-22T00:06:06.723Z,62.7
2022-08-22T00:07:50.463Z,62.7
2022-08-22T00:09:34.140Z,62.7
2022-08-22T00:11:17.833Z,62.8
2022-08-22T00:13:01.531Z,62.8
2022-08-22T00:14:45.234Z,62.9
2022-08-22T00:16:28.941Z,62.8
2022-08-22T00:18:12.636Z,62.9
2022-08-22T00:19:56.346Z,62.7
2022-08-22T00:21:40.041Z,62.7
2022-08-22T00:23:23.760Z,62.9
2022-08-22T00:25:07.463Z,62.9
2022-08-22T00:26:51.158Z,62.9
2022-08-22T00:28:34.887Z,63
2022-08-22T00:30:18.569Z,63
2022-08-22T00:32:02.267Z,63
2022-08-22T00:33:45.951Z,63
2022-08-22T00:35:29.674Z,63.1
2022-08-22T00:37:13.364Z,63.1
2022-08-22T00:38:57.061Z,63.2
2022-08-22T00:40:40.770Z,63.2
2022-08-22T00:42:24.472Z,63.1
2022-08-22T00:44:08.156Z,63.2
2022-08-22T00:45:51.871Z,63.3
2022-08-22T00:47:35.583Z,63.3
2022-08-22T00:49:19.261Z,63.3
2022-08-22T00:51:02.978Z,63.4
2022-08-22T00:52:46.675Z,63.4
2022-08-22T00:54:30.420Z,63.3
2022-08-22T00:56:14.089Z,63.3
2022-08-22T00:57:57.781Z,63.2
2022-08-22T00:59:41.484Z,63.2
2022-08-22T01:01:25.181Z,63.2
2022-08-22T01:03:08.885Z,63.1
2022-08-22T01:04:52.591Z,63.1
2022-08-22T01:06:36.316Z,63
2022-08-22T01:08:19.993Z,63.2
2022-08-22T01:10:03.681Z,63.3
2022-08-22T01:11:47.375Z,63.2
2022-08-22T01:13:31.089Z,63.2
2022-08-22T01:15:14.796Z,63.2
2022-08-22T01:16:58.489Z,63.2
2022-08-22T01:18:42.193Z,63.2
2022-08-22T01:20:25.896Z,63.1
2022-08-22T01:22:09.598Z,63.1
2022-08-22T01:23:53.303Z,63
2022-08-22T01:25:37.048Z,63
2022-08-22T01:27:20.684Z,63
2022-08-22T01:29:04.421Z,63
2022-08-22T01:30:48.094Z,63
2022-08-22T01:32:31.816Z,63.1
2022-08-22T01:34:15.495Z,63
2022-08-22T01:35:59.199Z,63
2022-08-22T01:37:42.915Z,63
2022-08-22T01:39:26.605Z,63
2022-08-22T01:41:10.320Z,62.9
2022-08-22T01:42:54.019Z,62.9
2022-08-22T01:44:37.711Z,62.9
2022-08-22T01:46:21.426Z,62.9
2022-08-22T01:48:05.128Z,62.9
2022-08-22T01:49:48.823Z,63
2022-08-22T01:51:32.520Z,63.1
2022-08-22T01:53:16.214Z,63
2022-08-22T01:54:59.930Z,63.1
2022-08-22T01:56:43.627Z,63.1
2022-08-22T01:58:27.352Z,63.2
2022-08-22T02:00:11.035Z,63.2
2022-08-22T02:01:54.751Z,63.2
2022-08-22T02:03:38.451Z,63.3
2022-08-22T02:05:22.141Z,63.4
2022-08-22T02:07:05.844Z,63.5
2022-08-22T02:08:49.535Z,63.5
2022-08-22T02:10:33.273Z,63.6
2022-08-22T02:12:16.940Z,63.7
2022-08-22T02:14:00.659Z,63.8
2022-08-22T02:15:44.356Z,63.9
2022-08-22T02:17:28.061Z,63.8
2022-08-22T02:19:11.759Z,63.8
2022-08-22T02:20:55.458Z,63.8
2022-08-22T02:22:39.167Z,63.7
2022-08-22T02:24:22.862Z,63.7
2022-08-22T02:26:06.568Z,63.7
2022-08-22T02:27:50.267Z,63.6
2022-08-22T02:29:33.953Z,63.6
2022-08-22T02:31:17.661Z,63.7
2022-08-22T02:33:01.375Z,63.7
2022-08-22T02:34:45.089Z,63.7
2022-08-22T02:36:28.780Z,63.6
2022-08-22T02:38:12.492Z,63.6
2022-08-22T02:39:56.182Z,63.6
2022-08-22T02:41:39.879Z,63.5
2022-08-22T02:43:23.598Z,63.5
2022-08-22T02:45:07.293Z,63.4
2022-08-22T02:46:50.985Z,63.4
2022-08-22T02:48:34.698Z,63.4
2022-08-22T02:50:18.397Z,63.4
2022-08-22T02:52:02.095Z,63.3
2022-08-22T02:53:45.789Z,63.3
2022-08-22T02:55:29.496Z,63.3
2022-08-22T02:57:13.211Z,63.3
2022-08-22T02:58:56.901Z,63.3
2022-08-22T03:00:40.609Z,63.3
2022-08-22T03:02:24.318Z,63.3
2022-08-22T03:04:08.013Z,63.2
2022-08-22T03:05:51.694Z,63.3
2022-08-22T03:07:35.413Z,63.3
2022-08-22T03:09:19.108Z,63.3
2022-08-22T03:11:02.819Z,63.3
2022-08-22T03:12:46.510Z,63.3
2022-08-22T03:14:30.220Z,63.4
2022-08-22T03:16:13.920Z,63.5
2022-08-22T03:17:57.629Z,63.5
2022-08-22T03:19:41.324Z,63.5
2022-08-22T03:23:08.735Z,63.6
2022-08-22T03:24:52.436Z,63.6
2022-08-22T03:26:36.145Z,63.7
2022-08-22T03:28:19.860Z,63.7
2022-08-22T03:30:03.535Z,63.7
2022-08-22T03:31:47.239Z,63.7
2022-08-22T03:33:30.939Z,63.7
2022-08-22T03:35:14.654Z,63.7
2022-08-22T03:36:58.354Z,63.8
2022-08-22T03:38:42.038Z,63.7
2022-08-22T03:40:25.759Z,63.8
2022-08-22T03:42:09.460Z,63.7
2022-08-22T03:43:53.152Z,63.7
2022-08-22T03:45:36.854Z,63.7
2022-08-22T03:47:20.549Z,63.8
2022-08-22T03:49:04.251Z,63.8
2022-08-22T03:50:47.969Z,63.8
2022-08-22T03:52:31.653Z,63.8
2022-08-22T03:54:15.374Z,63.8
2022-08-22T03:55:59.071Z,63.7
2022-08-22T03:57:42.776Z,63.6
2022-08-22T03:59:26.484Z,63.5
2022-08-22T04:01:10.251Z,63.5
2022-08-22T04:02:53.880Z,63.5
2022-08-22T04:04:37.580Z,63.6
2022-08-22T04:06:21.270Z,63.6
2022-08-22T04:08:04.972Z,63.6
2022-08-22T04:09:48.677Z,63.7
2022-08-22T04:11:32.384Z,63.7
2022-08-22T04:13:16.072Z,63.7
2022-08-22T04:14:59.783Z,63.7
2022-08-22T04:16:43.491Z,63.7
2022-08-22T04:18:27.205Z,63.7
2022-08-22T04:20:10.900Z,63.6
2022-08-22T04:21:54.582Z,63.6
2022-08-22T04:23:38.297Z,63.6
2022-08-22T04:25:21.995Z,63.6
2022-08-22T04:27:05.693Z,63.5
2022-08-22T04:28:49.397Z,63.5
2022-08-22T04:30:33.113Z,63.4
2022-08-22T04:32:16.806Z,63.4
2022-08-22T04:34:00.522Z,63.3
2022-08-22T04:35:44.224Z,63.3
2022-08-22T04:37:27.911Z,63.3
2022-08-22T04:39:11.608Z,63.3
2022-08-22T04:40:55.317Z,63.3
2022-08-22T04:42:39.023Z,63.3
2022-08-22T04:44:22.715Z,63.3
2022-08-22T04:46:06.408Z,63.3
2022-08-22T04:47:50.128Z,63.4
2022-08-22T04:49:33.819Z,63.4
2022-08-22T04:51:17.535Z,63.4
2022-08-22T04:53:01.239Z,63.6
2022-08-22T04:54:44.932Z,63.6
2022-08-22T04:56:28.652Z,63.6
2022-08-22T04:58:12.342Z,63.6
2022-08-22T04:59:56.038Z,63.6
2022-08-22T05:01:39.734Z,63.5
2022-08-22T05:03:23.477Z,63.4
2022-08-22T05:05:07.154Z,63.2
2022-08-22T05:06:50.853Z,63
2022-08-22T05:08:34.555Z,62.9
2022-08-22T05:10:18.258Z,62.9
2022-08-22T05:12:01.955Z,62.8
2022-08-22T05:13:45.679Z,62.8
2022-08-22T05:15:29.354Z,62.7
2022-08-22T05:17:13.050Z,62.5
2022-08-22T05:18:56.766Z,62.5
2022-08-22T05:20:40.474Z,62.2
2022-08-22T05:22:24.168Z,62.2
2022-08-22T05:24:07.861Z,62.1
2022-08-22T05:25:51.568Z,61.9
2022-08-22T05:27:35.327Z,61.7
2022-08-22T05:29:18.997Z,61.5
2022-08-22T05:31:02.679Z,61.3
2022-08-22T05:32:46.376Z,61.1
2022-08-22T05:34:30.079Z,60.8
2022-08-22T05:36:13.799Z,60.3
2022-08-22T05:37:57.469Z,60.2
2022-08-22T05:39:41.218Z,60
2022-08-22T05:41:24.879Z,59.4
2022-08-22T05:43:08.594Z,58.9
2022-08-22T05:44:52.285Z,58.5
2022-08-22T05:46:35.979Z,58
2022-08-22T05:48:19.682Z,57.7
2022-08-22T05:50:03.385Z,57.4
2022-08-22T05:51:47.075Z,57.3
2022-08-22T05:53:30.794Z,57
2022-08-22T05:55:14.501Z,56.7
2022-08-22T05:56:58.204Z,56.4
2022-08-22T05:58:41.914Z,56.4
2022-08-22T06:00:25.599Z,56.4
2022-08-22T06:02:09.304Z,56.2
2022-08-22T06:03:53.010Z,56
2022-08-22T06:05:36.723Z,55.9
2022-08-22T06:07:20.412Z,55.6
2022-08-22T06:09:04.113Z,55.5
2022-08-22T06:10:47.805Z,55.6
2022-08-22T06:12:31.491Z,55.6
2022-08-22T06:14:15.218Z,55.5
2022-08-22T06:15:58.900Z,55.4
2022-08-22T06:17:42.614Z,55.4
2022-08-22T06:19:26.312Z,55.5
2022-08-22T06:21:10.001Z,55.4
2022-08-22T06:22:53.717Z,55.4
2022-08-22T06:24:37.420Z,55.6
2022-08-22T06:26:21.111Z,58.8
2022-08-22T06:28:04.815Z,61.1
2022-08-22T06:29:48.503Z,62.3
2022-08-22T06:31:32.216Z,61.2
2022-08-22T06:33:15.897Z,60.4
2022-08-22T06:34:59.607Z,60.1
2022-08-22T06:36:43.308Z,59.8
2022-08-22T06:38:27.022Z,59.4
2022-08-22T06:40:10.702Z,59.1
2022-08-22T06:41:54.405Z,59.4
2022-08-22T06:43:38.111Z,59.6
2022-08-22T06:45:21.826Z,59.4
2022-08-22T06:47:05.509Z,59.4
2022-08-22T06:48:49.220Z,59.6
2022-08-22T06:50:32.916Z,60
2022-08-22T06:52:16.630Z,59.8
2022-08-22T06:54:00.323Z,59.8
2022-08-22T06:55:44.024Z,59.8
2022-08-22T06:57:27.763Z,59.5
2022-08-22T06:59:11.439Z,59.5
2022-08-22T07:00:55.150Z,59.9
2022-08-22T07:02:38.855Z,60
2022-08-22T07:04:22.540Z,60.2
2022-08-22T07:07:49.962Z,60.3
2022-08-22T07:09:33.666Z,60.3
2022-08-22T07:11:17.366Z,60.3
2022-08-22T07:13:01.058Z,60.1
2022-08-22T07:14:44.776Z,59.9
2022-08-22T07:16:28.456Z,60.3
2022-08-22T07:18:12.160Z,60.2
2022-08-22T07:19:55.864Z,60.5
2022-08-22T07:21:39.575Z,60.8
2022-08-22T07:23:23.274Z,61.2
2022-08-22T07:25:06.978Z,61.3
2022-08-22T07:26:50.664Z,61.5
2022-08-22T07:28:34.390Z,61.3
2022-08-22T07:30:18.091Z,61.1
2022-08-22T07:32:01.779Z,61.2
2022-08-22T07:33:45.507Z,61.3
2022-08-22T07:35:29.218Z,61.2
2022-08-22T07:37:12.890Z,61
2022-08-22T07:38:56.612Z,60.7
2022-08-22T07:40:40.304Z,60.5
2022-08-22T07:42:24.027Z,60.3
2022-08-22T07:44:07.704Z,60.4
2022-08-22T07:45:51.421Z,60.2
2022-08-22T07:47:35.125Z,60.2
2022-08-22T07:49:18.832Z,60.3
2022-08-22T07:51:02.524Z,60.5
2022-08-22T07:52:46.233Z,60.6
2022-08-22T07:54:29.927Z,60.7
2022-08-22T07:56:13.637Z,60.7
2022-08-22T07:57:57.351Z,60.8
2022-08-22T07:59:41.048Z,60.9
2022-08-22T08:01:24.789Z,60.8
2022-08-22T08:04:52.157Z,60.3
2022-08-22T08:06:35.873Z,60.3
2022-08-22T08:08:19.575Z,60.2
2022-08-22T08:10:03.273Z,60.1
2022-08-22T08:11:46.993Z,59.9
2022-08-22T08:13:30.664Z,59.7
2022-08-22T08:15:14.372Z,59.6
2022-08-22T08:16:58.059Z,59.3
2022-08-22T08:18:41.814Z,59.1
2022-08-22T08:20:25.467Z,58.5
2022-08-22T08:22:09.200Z,58.1
2022-08-22T08:23:52.858Z,57.6
2022-08-22T08:25:36.598Z,56.7
2022-08-22T08:27:20.271Z,56.2
2022-08-22T08:29:03.997Z,55.8
2022-08-22T08:30:47.677Z,55.2
2022-08-22T08:32:31.358Z,54.6
2022-08-22T08:34:15.069Z,54.1
2022-08-22T08:35:58.772Z,53.7
2022-08-22T08:37:42.466Z,53.3
2022-08-22T08:39:26.174Z,53
2022-08-22T08:41:09.881Z,52.8
2022-08-22T08:42:53.576Z,52.5
2022-08-22T08:44:37.274Z,52.6
2022-08-22T08:46:20.976Z,52.9
2022-08-22T08:48:04.695Z,53.1
2022-08-22T08:49:48.377Z,53.3
2022-08-22T08:51:32.090Z,53.6
2022-08-22T08:53:15.814Z,54
2022-08-22T08:54:59.514Z,54.4
2022-08-22T08:56:43.206Z,54.8
2022-08-22T08:58:26.898Z,55.4
2022-08-22T09:00:11.150Z,55.7
2022-08-22T09:01:54.305Z,56.2
2022-08-22T09:03:38.015Z,56.6
2022-08-22T09:05:21.744Z,56.8
2022-08-22T09:07:05.424Z,57
2022-08-22T09:08:49.127Z,57.3
2022-08-22T09:10:32.932Z,57.6
2022-08-22T09:12:16.540Z,58
2022-08-22T09:14:00.257Z,58.3
2022-08-22T09:15:43.919Z,58.4
2022-08-22T09:17:27.610Z,58.6
2022-08-22T09:19:11.325Z,58.7
2022-08-22T09:20:55.057Z,58.8
2022-08-22T09:22:38.700Z,59.1
2022-08-22T09:24:22.412Z,59.4
2022-08-22T09:26:06.105Z,59.6
2022-08-22T09:27:49.838Z,59.6
2022-08-22T09:29:33.519Z,59.6
2022-08-22T09:31:17.212Z,59.6
2022-08-22T09:33:00.917Z,59.6
2022-08-22T09:34:44.643Z,59.7
2022-08-22T09:36:28.354Z,59.8
2022-08-22T09:38:12.012Z,59.9
2022-08-22T09:39:55.709Z,60
2022-08-22T09:41:39.416Z,60.2
2022-08-22T09:43:23.141Z,60.1
2022-08-22T09:45:06.826Z,60.1
2022-08-22T09:46:50.541Z,60.2
2022-08-22T09:48:34.251Z,60.4
2022-08-22T09:50:17.947Z,60.5
2022-08-22T09:52:01.625Z,60.6
2022-08-22T09:53:45.330Z,60.6
2022-08-22T09:55:29.027Z,60.2
2022-08-22T09:57:12.743Z,60
2022-08-22T09:58:56.463Z,59.5
2022-08-22T10:00:40.242Z,59.2
2022-08-22T10:02:23.852Z,58.9
2022-08-22T10:04:07.552Z,58.7
2022-08-22T10:05:51.292Z,58.7
2022-08-22T10:07:34.946Z,59.3
2022-08-22T10:09:18.661Z,58.9
2022-08-22T10:11:02.389Z,58.4
2022-08-22T10:12:46.065Z,58.5
2022-08-22T10:14:29.811Z,58.2
2022-08-22T10:16:13.510Z,58
2022-08-22T10:17:57.154Z,57.7
2022-08-22T10:19:40.878Z,57.7
2022-08-22T10:21:24.604Z,57.9
2022-08-22T10:23:08.262Z,58.3
2022-08-22T10:24:51.985Z,58.4
2022-08-22T10:26:35.690Z,58.5
2022-08-22T10:28:19.343Z,58.6
2022-08-22T10:30:03.077Z,58.3
2022-08-22T10:31:46.751Z,58.1
2022-08-22T10:33:30.459Z,58.2
2022-08-22T10:35:14.189Z,58.4
2022-08-22T10:36:57.866Z,58.5
2022-08-22T10:38:41.599Z,58.3
2022-08-22T10:40:25.270Z,57.6
2022-08-22T10:42:08.981Z,57
2022-08-22T10:43:52.670Z,56.5
2022-08-22T10:45:36.373Z,56.6
2022-08-22T10:47:20.106Z,56.8
2022-08-22T10:49:03.764Z,56.3
2022-08-22T10:50:47.482Z,56.5
2022-08-22T10:52:31.280Z,56.9
2022-08-22T10:54:14.896Z,56.7
2022-08-22T10:55:59.638Z,56.1
2022-08-22T10:57:42.290Z,56.2
2022-08-22T10:59:25.999Z,56
2022-08-22T11:01:09.690Z,56
2022-08-22T11:02:53.415Z,56.4
2022-08-22T11:04:37.119Z,56.4
2022-08-22T11:06:20.813Z,55.9
2022-08-22T11:08:04.522Z,55.5
2022-08-22T11:09:48.222Z,55.6
2022-08-22T11:11:31.913Z,55.5
2022-08-22T11:13:15.612Z,55.4
2022-08-22T11:14:59.303Z,55.5
2022-08-22T11:16:43.032Z,55.3
2022-08-22T11:18:26.727Z,55
2022-08-22T11:20:10.424Z,54.9
2022-08-22T11:21:54.158Z,55.1
2022-08-22T11:23:37.845Z,55.3
2022-08-22T11:25:21.511Z,55.3
2022-08-22T11:27:05.236Z,55.1
2022-08-22T11:28:48.921Z,55
2022-08-22T11:30:32.636Z,55
2022-08-22T11:32:16.342Z,55.2
2022-08-22T11:34:00.095Z,54.9
2022-08-22T11:35:43.765Z,54.8
2022-08-22T11:37:27.464Z,54.8
2022-08-22T11:39:11.134Z,54.8
2022-08-22T11:40:54.885Z,54.5
2022-08-22T11:44:22.257Z,54.1
2022-08-22T11:46:05.953Z,54.1
2022-08-22T11:47:49.671Z,54.2
2022-08-22T11:49:33.350Z,54.5
2022-08-22T11:51:17.070Z,54.5
2022-08-22T11:53:00.772Z,54.8
2022-08-22T11:54:44.483Z,54.7
2022-08-22T11:56:28.160Z,54.7
2022-08-22T11:58:11.860Z,54.6
2022-08-22T11:59:55.573Z,54.4
2022-08-22T12:01:39.276Z,54.2
2022-08-22T12:03:22.977Z,54.4
2022-08-22T12:05:06.669Z,54.6
2022-08-22T12:06:50.468Z,54.5
2022-08-22T12:08:34.094Z,54.6
2022-08-22T12:10:17.784Z,54.4
2022-08-22T12:12:01.511Z,54.4
2022-08-22T12:13:45.197Z,54.3
2022-08-22T12:15:28.881Z,54.4
2022-08-22T12:17:12.593Z,54.3
2022-08-22T12:20:39.971Z,54.2
2022-08-22T12:25:51.078Z,53.5
2022-08-22T12:27:34.796Z,53.5
2022-08-22T12:29:18.493Z,53.5
2022-08-22T12:32:45.928Z,54
2022-08-22T12:34:29.607Z,54.1
2022-08-22T12:36:13.287Z,54.3
2022-08-22T12:37:57.032Z,54.3
2022-08-22T12:39:40.670Z,54.3
2022-08-22T12:41:24.393Z,54.1
2022-08-22T12:43:08.085Z,54.2
2022-08-22T12:44:51.823Z,54.1
2022-08-22T12:46:35.474Z,54
2022-08-22T12:48:19.182Z,54.2
2022-08-22T12:50:02.919Z,54.1
2022-08-22T12:51:46.593Z,53.8
2022-08-22T12:53:30.297Z,53.5
2022-08-22T12:55:14.016Z,53.1
2022-08-22T12:56:57.680Z,53.1
2022-08-22T12:58:41.389Z,53.2
2022-08-22T13:00:25.089Z,53.1
2022-08-22T13:02:08.818Z,53.4
2022-08-22T13:03:52.560Z,53.5
2022-08-22T13:05:36.245Z,53.4
2022-08-22T13:07:19.923Z,53.3
2022-08-22T13:09:03.612Z,53.3
2022-08-22T13:10:47.347Z,53.2
2022-08-22T13:12:31.006Z,53
2022-08-22T13:14:14.729Z,52.8
2022-08-22T13:15:58.424Z,53
2022-08-22T13:17:42.124Z,53.1
2022-08-22T13:19:25.860Z,53.2
2022-08-22T13:21:09.535Z,53.2
2022-08-22T13:22:53.205Z,53.3
2022-08-22T13:24:36.904Z,53.3
2022-08-22T13:26:20.601Z,53.5
2022-08-22T13:28:04.320Z,53.6
2022-08-22T13:29:48.023Z,53.8
2022-08-22T13:31:31.737Z,53.9
2022-08-22T13:33:15.421Z,53.8
2022-08-22T13:34:59.115Z,53.9
2022-08-22T13:36:42.815Z,54
2022-08-22T13:38:26.505Z,54.3
2022-08-22T13:40:10.194Z,54.3
2022-08-22T13:41:53.912Z,54.5
2022-08-22T13:43:37.639Z,54.5
2022-08-22T13:45:21.306Z,54.4
2022-08-22T13:47:05.003Z,54.4
2022-08-22T13:48:48.719Z,54.5
2022-08-22T13:50:32.408Z,54.7
2022-08-22T13:52:16.116Z,54.7
2022-08-22T13:53:59.823Z,54.7
2022-08-22T13:55:43.509Z,54.8
2022-08-22T13:57:27.237Z,54.7
2022-08-22T13:59:10.952Z,54.7
2022-08-22T14:00:54.639Z,54.8
2022-08-22T14:02:38.338Z,54.8
2022-08-22T14:04:22.046Z,54.9
2022-08-22T14:06:05.717Z,55
2022-08-22T14:07:49.434Z,55
2022-08-22T14:09:33.124Z,55.2
2022-08-22T14:11:16.842Z,55.2
2022-08-22T14:13:00.529Z,55.1
2022-08-22T14:14:44.214Z,54.9
2022-08-22T14:16:27.930Z,54.7
2022-08-22T14:18:11.644Z,54.5
2022-08-22T14:19:55.312Z,54.4
2022-08-22T14:21:39.011Z,54.4
2022-08-22T14:23:22.730Z,54.3
2022-08-22T14:25:06.438Z,54.3
2022-08-22T14:26:50.114Z,54.2
2022-08-22T14:28:33.800Z,54
2022-08-22T14:30:17.511Z,54
2022-08-22T14:32:01.209Z,53.8
2022-08-22T14:33:44.910Z,53.7
2022-08-22T14:35:28.608Z,53.7
2022-08-22T14:37:12.340Z,53.7
2022-08-22T14:38:56.033Z,53.8
2022-08-22T14:40:39.724Z,53.6
2022-08-22T14:42:23.459Z,53.4
2022-08-22T14:44:07.139Z,53.4
2022-08-22T14:45:50.855Z,53.4
2022-08-22T14:47:34.533Z,53.3
2022-08-22T14:49:18.238Z,53.3
2022-08-22T14:51:01.936Z,53.3
2022-08-22T14:52:45.682Z,53.3
2022-08-22T14:54:29.338Z,53.2
2022-08-22T14:56:13.037Z,53.2
2022-08-22T14:59:40.448Z,53.4
2022-08-22T15:01:24.144Z,53.4
2022-08-22T15:03:07.826Z,53.1
2022-08-22T15:04:51.547Z,53.1
2022-08-22T15:06:35.228Z,53.1
2022-08-22T15:08:18.934Z,53.1
2022-08-22T15:10:02.640Z,53.1
2022-08-22T15:11:46.330Z,53.1
2022-08-22T15:13:30.041Z,53
2022-08-22T15:15:13.728Z,53
2022-08-22T15:16:57.464Z,53
2022-08-22T15:18:41.149Z,53
2022-08-22T15:20:24.865Z,53.1
2022-08-22T15:22:08.543Z,53
2022-08-22T15:23:52.277Z,53
2022-08-22T15:25:35.956Z,53.1
2022-08-22T15:27:19.654Z,53.3
2022-08-22T15:29:03.403Z,53.2
2022-08-22T15:30:47.067Z,52.6
2022-08-22T15:32:30.765Z,52.5
2022-08-22T15:34:14.522Z,52.5
2022-08-22T15:35:58.190Z,52.4
2022-08-22T15:37:41.861Z,52.3
2022-08-22T15:39:25.575Z,52.1
2022-08-22T15:41:09.287Z,51.9
2022-08-22T15:42:53.012Z,52
2022-08-22T15:44:36.664Z,52
2022-08-22T15:46:20.366Z,52.1
2022-08-22T15:48:04.110Z,52.2
2022-08-22T15:49:47.779Z,52.2
2022-08-22T15:51:31.465Z,52.1
2022-08-22T15:53:15.164Z,52.3
2022-08-22T15:54:58.875Z,52.2
2022-08-22T15:56:42.579Z,52.1
2022-08-22T15:58:26.280Z,51.9
2022-08-22T16:00:09.995Z,52
2022-08-22T16:01:53.689Z,51.7
2022-08-22T16:03:37.366Z,51.7
2022-08-22T16:05:21.071Z,51.5
2022-08-22T16:07:04.762Z,51.6
2022-08-22T16:08:48.462Z,51.5
2022-08-22T16:10:32.219Z,51.6
2022-08-22T16:12:15.882Z,51.6
2022-08-22T16:13:59.582Z,51.5
2022-08-22T16:15:43.268Z,51.5
2022-08-22T16:17:26.971Z,51.5
2022-08-22T16:19:10.693Z,51.4
2022-08-22T16:20:54.372Z,51.5
2022-08-22T16:22:38.103Z,51.5
2022-08-22T16:24:21.779Z,51.4
2022-08-22T16:26:05.477Z,51.6
2022-08-22T16:27:49.201Z,51.5
2022-08-22T16:29:32.885Z,51.3
2022-08-22T16:31:16.604Z,51.5
2022-08-22T16:33:00.297Z,51.4
2022-08-22T16:34:43.991Z,51.4
2022-08-22T16:36:27.707Z,51.3
2022-08-22T16:38:11.399Z,51.5
2022-08-22T16:39:55.106Z,51.6
2022-08-22T16:41:38.800Z,51.5
2022-08-22T16:43:22.509Z,51.4
2022-08-22T16:45:06.196Z,51.6
2022-08-22T16:46:49.912Z,51.4
2022-08-22T16:48:33.586Z,51.4
2022-08-22T16:50:17.308Z,51.5
2022-08-22T16:52:01.039Z,51.5
2022-08-22T16:53:44.702Z,51.5
2022-08-22T16:55:28.392Z,51.7
2022-08-22T16:57:12.092Z,51.6
2022-08-22T16:58:55.783Z,51.5
2022-08-22T17:00:39.493Z,51.6
2022-08-22T17:02:23.190Z,51.4
2022-08-22T17:04:06.901Z,51.3
2022-08-22T17:05:50.588Z,51.5
2022-08-22T17:07:34.291Z,51.6
2022-08-22T17:09:17.986Z,51.8
2022-08-22T17:11:01.695Z,51.5
2022-08-22T17:12:45.409Z,51.7
2022-08-22T17:14:29.124Z,51.5
2022-08-22T17:16:12.810Z,51.6
2022-08-22T17:17:56.510Z,51.7
2022-08-22T17:19:40.217Z,51.7
2022-08-22T17:21:23.916Z,51.6
2022-08-22T17:23:07.631Z,51.5
2022-08-22T17:24:51.309Z,51.6
2022-08-22T17:26:35.000Z,51.8
2022-08-22T17:28:18.717Z,51.7
2022-08-22T17:30:02.433Z,51.4
2022-08-22T17:31:46.106Z,51.8
2022-08-22T17:33:29.808Z,51.6
2022-08-22T17:35:13.519Z,51.6
2022-08-22T17:36:57.233Z,51.4
2022-08-22T17:38:40.905Z,51.7
2022-08-22T17:40:24.598Z,52
2022-08-22T17:42:08.315Z,52.2
2022-08-22T17:43:52.015Z,52.2
2022-08-22T17:45:35.711Z,52.4
2022-08-22T17:47:19.415Z,52.8
2022-08-22T17:49:03.142Z,53
2022-08-22T17:50:46.814Z,53.3
2022-08-22T17:52:30.522Z,53.7
2022-08-22T17:54:14.224Z,54
2022-08-22T17:55:57.911Z,54.3
2022-08-22T17:57:41.626Z,55.3
2022-08-22T17:59:25.325Z,55.5
2022-08-22T18:01:09.028Z,55.9
2022-08-22T18:02:52.729Z,56
2022-08-22T18:04:36.443Z,55.9
2022-08-22T18:06:20.149Z,55.8
2022-08-22T18:08:03.827Z,55.9
2022-08-22T18:09:47.557Z,56.2
2022-08-22T18:11:31.232Z,56.4
2022-08-22T18:13:15.146Z,56.7
2022-08-22T18:14:58.636Z,56.6
2022-08-22T18:16:42.344Z,56.6
2022-08-22T18:18:26.054Z,56.6
2022-08-22T18:20:09.750Z,56.6
2022-08-22T18:21:53.425Z,56.6
2022-08-22T18:23:37.163Z,56.5
2022-08-22T18:25:20.831Z,56.8
2022-08-22T18:27:04.550Z,57
2022-08-22T18:28:48.237Z,56.8
2022-08-22T18:30:31.937Z,56.9
2022-08-22T18:32:15.628Z,57
2022-08-22T18:33:59.338Z,57
2022-08-22T18:35:43.024Z,57.2
2022-08-22T18:37:26.733Z,57.1
2022-08-22T18:39:10.446Z,57.2
2022-08-22T18:40:54.132Z,57.1
2022-08-22T18:42:37.842Z,56.9
2022-08-22T18:44:21.543Z,57
2022-08-22T18:46:05.247Z,56.9
2022-08-22T18:47:48.944Z,57.1
2022-08-22T18:49:32.654Z,57.3
2022-08-22T18:51:16.361Z,57
2022-08-22T18:53:00.055Z,57
2022-08-22T18:54:43.762Z,57.1
2022-08-22T18:56:27.472Z,57.1
2022-08-22T18:58:11.166Z,57.2
2022-08-22T18:59:54.875Z,57.2
2022-08-22T19:01:38.565Z,57.3
2022-08-22T19:03:22.286Z,57.3
2022-08-22T19:05:05.975Z,57.4
2022-08-22T19:06:49.675Z,57.4
2022-08-22T19:08:33.370Z,57.5
2022-08-22T19:10:17.092Z,57.5
2022-08-22T19:12:00.780Z,57.5
2022-08-22T19:13:44.471Z,57.5
2022-08-22T19:15:28.201Z,57.6
2022-08-22T19:17:11.892Z,57.7
2022-08-22T19:18:55.598Z,57.7
2022-08-22T19:20:39.285Z,57.8
2022-08-22T19:22:23.005Z,58.1
2022-08-22T19:24:06.707Z,58.1
2022-08-22T19:25:50.417Z,58.4
2022-08-22T19:27:34.101Z,58.5
2022-08-22T19:29:17.816Z,58.7
2022-08-22T19:31:01.521Z,58.8
2022-08-22T19:32:45.225Z,59
2022-08-22T19:34:28.923Z,59.2
2022-08-22T19:36:12.629Z,59.3
2022-08-22T19:37:56.321Z,59.4
2022-08-22T19:39:40.039Z,59.1
2022-08-22T19:41:23.729Z,59.4
2022-08-22T19:43:07.434Z,59.2
2022-08-22T19:44:51.132Z,58.8
2022-08-22T19:46:34.831Z,58.9
2022-08-22T19:48:18.531Z,58.9
2022-08-22T19:50:02.228Z,59.3
2022-08-22T19:51:45.937Z,59.5
2022-08-22T19:53:29.629Z,59.3
2022-08-22T19:55:13.342Z,59.5
2022-08-22T19:56:57.052Z,59.8
2022-08-22T19:58:40.737Z,59.8
2022-08-22T20:00:24.454Z,59.7
2022-08-22T20:02:08.145Z,59.9
2022-08-22T20:03:51.863Z,60
2022-08-22T20:05:35.569Z,60.2
2022-08-22T20:07:19.263Z,60.4
2022-08-22T20:09:02.966Z,60.1
2022-08-22T20:10:46.673Z,60.1
2022-08-22T20:12:30.385Z,60.5
2022-08-22T20:14:14.083Z,60.6
2022-08-22T20:15:57.791Z,60.5
2022-08-22T20:17:41.480Z,60.6
2022-08-22T20:19:25.179Z,60.7
2022-08-22T20:21:08.904Z,60.7
2022-08-22T20:22:52.603Z,60.7
2022-08-22T20:24:36.274Z,60.9
2022-08-22T20:26:19.986Z,60.6
2022-08-22T20:28:03.685Z,60.6
2022-08-22T20:29:47.407Z,60.5
2022-08-22T20:31:31.074Z,60.5
2022-08-22T20:33:14.774Z,60.3
2022-08-22T20:34:58.478Z,60.5
2022-08-22T20:36:42.193Z,60.8
2022-08-22T20:38:25.932Z,60.9
2022-08-22T20:40:09.608Z,61
2022-08-22T20:41:53.323Z,61.3
2022-08-22T20:43:37.000Z,61.5
2022-08-22T20:45:20.715Z,61.5
2022-08-22T20:47:04.402Z,61.8
2022-08-22T20:48:48.114Z,62.1
2022-08-22T20:50:31.816Z,61.7
2022-08-22T20:52:15.526Z,61.9
2022-08-22T20:53:59.202Z,62
2022-08-22T20:55:42.903Z,62.1
2022-08-22T20:57:26.604Z,62
2022-08-22T20:59:10.337Z,62.1
2022-08-22T21:00:54.017Z,62
2022-08-22T21:02:37.725Z,62.1
2022-08-22T21:04:21.432Z,62.2
2022-08-22T21:06:05.123Z,62.2
2022-08-22T21:07:48.815Z,62.4
2022-08-22T21:09:32.521Z,62.6
2022-08-22T21:11:16.222Z,62.8
2022-08-22T21:12:59.933Z,62.5
2022-08-22T21:14:43.628Z,62.6
2022-08-22T21:16:27.325Z,62.6
2022-08-22T21:18:11.029Z,62.8
2022-08-22T21:19:54.730Z,62.9
2022-08-22T21:21:38.444Z,62.9
2022-08-22T21:23:22.123Z,63.1
2022-08-22T21:25:05.832Z,63
2022-08-22T21:26:49.529Z,63.1
2022-08-22T21:28:33.246Z,63.1
2022-08-22T21:30:16.944Z,63.1
2022-08-22T21:32:00.646Z,63.1
2022-08-22T21:33:44.350Z,63.1
2022-08-22T21:35:28.064Z,63.1
2022-08-22T21:37:11.809Z,63.3
2022-08-22T21:38:55.451Z,63.4
2022-08-22T21:40:39.163Z,63.3
2022-08-22T21:42:22.865Z,63.1
2022-08-22T21:44:06.564Z,63
2022-08-22T21:45:50.254Z,63
2022-08-22T21:47:33.978Z,63.1
2022-08-22T21:49:17.655Z,63.1
2022-08-22T21:51:01.372Z,63.1
2022-08-22T21:52:45.066Z,63.1
2022-08-22T21:54:28.771Z,63.4
2022-08-22T21:56:12.482Z,63.4
2022-08-22T21:57:56.192Z,63.3
2022-08-22T21:59:39.888Z,63.3
2022-08-22T22:01:23.565Z,63.2
2022-08-22T22:03:07.272Z,63.3
2022-08-22T22:04:50.980Z,63.4
2022-08-22T22:06:34.685Z,63.4
2022-08-22T22:08:18.370Z,63.6
2022-08-22T22:10:02.078Z,63
2022-08-22T22:11:45.792Z,62.9
2022-08-22T22:13:29.484Z,63
2022-08-22T22:15:13.187Z,62.9
2022-08-22T22:16:56.879Z,62.6
2022-08-22T22:18:40.613Z,62.3
2022-08-22T22:20:24.307Z,62
2022-08-22T22:22:07.997Z,61.9
2022-08-22T22:23:51.697Z,61.8
2022-08-22T22:25:35.392Z,61.7
2022-08-22T22:27:19.102Z,61.5
2022-08-22T22:29:02.811Z,61.5
2022-08-22T22:30:46.489Z,61.4
2022-08-22T22:32:30.210Z,61.3
2022-08-22T22:34:13.911Z,61.1
2022-08-22T22:35:57.609Z,61.1
2022-08-22T22:37:41.303Z,61
2022-08-22T22:39:25.022Z,61
2022-08-22T22:41:08.699Z,61
2022-08-22T22:42:52.411Z,60.9
2022-08-22T22:44:36.105Z,60.7
2022-08-22T22:46:19.824Z,60.6
2022-08-22T22:48:03.516Z,60.6
2022-08-22T22:49:47.211Z,60.6
2022-08-22T22:51:30.926Z,60.6
2022-08-22T22:53:14.614Z,60.6
2022-08-22T22:54:58.321Z,60.6
2022-08-22T22:56:42.057Z,60.5
2022-08-22T22:58:25.732Z,60.5
2022-08-22T23:00:09.426Z,60.5
2022-08-22T23:01:53.139Z,60.5
2022-08-22T23:03:36.828Z,60.5
2022-08-22T23:05:20.536Z,60.5
2022-08-22T23:07:04.232Z,60.5
2022-08-22T23:08:47.921Z,60.5
2022-08-22T23:10:31.635Z,60.4
2022-08-22T23:12:15.337Z,60.4
2022-08-22T23:13:59.036Z,60.5
2022-08-22T23:15:42.745Z,60.5
2022-08-22T23:17:26.450Z,60.4
2022-08-22T23:19:10.145Z,60.2
2022-08-22T23:20:53.858Z,60.2
2022-08-22T23:22:37.570Z,60.1
2022-08-22T23:24:21.265Z,60